createdAt,value
2019-04-27T00:01:35.956Z,15.12
2019-04-27T00:04:39.861Z,15.03
2019-04-27T00:07:22.489Z,15.00
2019-04-27T00:09:59.769Z,14.89
2019-04-27T00:12:29.677Z,14.89
2019-04-27T00:14:59.291Z,14.87
2019-04-27T00:17:56.398Z,14.88
2019-04-27T00:20:36.757Z,14.91
2019-04-27T00:23:09.275Z,14.97
2019-04-27T00:25:38.812Z,14.89
2019-04-27T00:28:08.402Z,14.74
2019-04-27T00:30:38.916Z,14.70
2019-04-27T00:33:08.444Z,14.68
2019-04-27T00:35:47.374Z,14.54
2019-04-27T00:38:25.097Z,14.59
2019-04-27T00:40:58.657Z,14.58
2019-04-27T00:43:28.221Z,14.56
2019-04-27T00:45:57.859Z,14.55
2019-04-27T00:48:27.455Z,14.50
2019-04-27T00:50:57.021Z,14.46
2019-04-27T00:53:27.512Z,14.33
2019-04-27T00:56:14.732Z,14.34
2019-04-27T00:59:06.157Z,14.33
2019-04-27T01:01:43.646Z,14.32
2019-04-27T01:04:20.612Z,14.27
2019-04-27T01:06:50.123Z,14.26
2019-04-27T01:09:20.019Z,14.30
2019-04-27T01:11:49.538Z,14.29
2019-04-27T01:14:19.068Z,14.33
2019-04-27T01:16:49.266Z,14.28
2019-04-27T01:19:19.890Z,14.26
2019-04-27T01:21:49.727Z,14.25
2019-04-27T01:24:19.364Z,14.19
2019-04-27T01:27:08.793Z,14.15
2019-04-27T01:29:39.286Z,14.03
2019-04-27T01:32:11.746Z,14.01
2019-04-27T01:34:41.302Z,13.92
2019-04-27T01:37:10.841Z,13.84
2019-04-27T01:39:40.381Z,13.82
2019-04-27T01:42:10.628Z,13.83
2019-04-27T01:44:41.172Z,13.73
2019-04-27T01:47:10.683Z,13.71
2019-04-27T01:49:40.209Z,13.66
2019-04-27T01:52:09.802Z,13.66
2019-04-27T01:57:22.071Z,13.77
2019-04-27T01:59:51.590Z,13.70
2019-04-27T02:02:31.687Z,13.75
2019-04-27T02:05:19.150Z,13.56
2019-04-27T02:07:49.106Z,13.42
2019-04-27T02:10:19.291Z,13.28
2019-04-27T02:12:49.048Z,13.25
2019-04-27T02:15:19.183Z,13.19
2019-04-27T02:17:50.918Z,13.24
2019-04-27T02:20:20.069Z,13.32
2019-04-27T02:22:50.791Z,13.41
2019-04-27T02:25:21.100Z,13.41
2019-04-27T02:27:56.745Z,13.47
2019-04-27T02:30:57.241Z,13.49
2019-04-27T02:33:49.861Z,13.45
2019-04-27T02:36:20.252Z,13.36
2019-04-27T02:38:49.839Z,13.28
2019-04-27T02:41:19.986Z,13.39
2019-04-27T02:43:55.429Z,13.37
2019-04-27T02:46:25.046Z,13.36
2019-04-27T02:49:00.462Z,13.34
2019-04-27T02:51:49.553Z,13.23
2019-04-27T02:54:20.389Z,13.10
2019-04-27T02:56:52.668Z,13.02
2019-04-27T02:59:21.386Z,13.07
2019-04-27T03:02:00.855Z,13.18
2019-04-27T03:04:30.486Z,13.25
2019-04-27T03:07:00.371Z,13.34
2019-04-27T03:09:31.015Z,13.44
2019-04-27T03:12:01.914Z,13.42
2019-04-27T03:14:50.616Z,13.36
2019-04-27T03:17:30.798Z,13.41
2019-04-27T03:20:17.250Z,13.40
2019-04-27T03:22:55.181Z,13.38
2019-04-27T03:25:32.725Z,13.42
2019-04-27T03:28:10.683Z,13.42
2019-04-27T03:30:42.292Z,13.40
2019-04-27T03:33:12.401Z,13.39
2019-04-27T03:35:43.617Z,13.42
2019-04-27T03:38:13.520Z,13.42
2019-04-27T03:40:43.058Z,13.41
2019-04-27T03:43:19.746Z,13.34
2019-04-27T03:45:51.799Z,13.26
2019-04-27T03:48:20.511Z,13.23
2019-04-27T03:51:00.184Z,13.20
2019-04-27T03:53:34.973Z,13.22
2019-04-27T03:56:19.881Z,13.22
2019-04-27T03:58:52.859Z,13.24
2019-04-27T04:01:22.375Z,13.20
2019-04-27T04:03:51.987Z,13.17
2019-04-27T04:06:21.605Z,13.15
2019-04-27T04:08:55.000Z,13.13
2019-04-27T04:11:35.149Z,13.09
2019-04-27T04:14:09.954Z,13.09
2019-04-27T04:16:52.335Z,13.04
2019-04-27T04:19:21.857Z,13.03
2019-04-27T04:21:51.371Z,13.05
2019-04-27T04:24:20.975Z,13.14
2019-04-27T04:26:50.619Z,13.17
2019-04-27T04:29:20.468Z,13.12
2019-04-27T04:31:50.572Z,13.09
2019-04-27T04:34:20.308Z,12.98
2019-04-27T04:36:50.517Z,12.94
2019-04-27T04:39:20.196Z,12.95
2019-04-27T04:41:55.528Z,13.01
2019-04-27T04:44:40.008Z,12.97
2019-04-27T04:47:19.583Z,13.03
2019-04-27T04:49:59.713Z,12.99
2019-04-27T04:52:20.539Z,13.03
2019-04-27T04:54:50.069Z,13.00
2019-04-27T04:57:21.895Z,13.00
2019-04-27T04:59:51.507Z,13.02
2019-04-27T05:02:21.157Z,13.05
2019-04-27T05:04:50.676Z,13.09
2019-04-27T05:07:20.210Z,13.10
2019-04-27T05:09:49.766Z,13.06
2019-04-27T05:12:19.296Z,13.06
2019-04-27T05:14:49.039Z,13.06
2019-04-27T05:17:19.641Z,13.02
2019-04-27T05:19:50.127Z,13.03
2019-04-27T05:22:19.679Z,13.01
2019-04-27T05:25:00.408Z,13.01
2019-04-27T05:27:31.567Z,13.08
2019-04-27T05:30:01.168Z,13.22
2019-04-27T05:32:30.738Z,13.30
2019-04-27T05:35:00.289Z,13.48
2019-04-27T05:37:31.634Z,13.69
2019-04-27T05:40:01.072Z,13.81
2019-04-27T05:42:30.599Z,14.06
2019-04-27T05:45:09.347Z,14.28
2019-04-27T05:47:51.899Z,14.48
2019-04-27T05:50:22.088Z,14.84
2019-04-27T05:52:51.714Z,15.09
2019-04-27T05:55:21.247Z,15.28
2019-04-27T05:57:50.805Z,15.38
2019-04-27T06:00:21.668Z,15.58
2019-04-27T06:02:51.206Z,15.78
2019-04-27T06:05:22.760Z,16.00
2019-04-27T06:07:51.976Z,16.29
2019-04-27T06:10:21.488Z,16.61
2019-04-27T06:12:51.005Z,16.77
2019-04-27T06:15:20.723Z,16.91
2019-04-27T06:17:50.351Z,17.07
2019-04-27T06:20:19.886Z,17.26
2019-04-27T06:22:49.447Z,17.33
2019-04-27T06:25:21.533Z,17.36
2019-04-27T06:27:50.383Z,17.39
2019-04-27T06:30:19.983Z,17.71
2019-04-27T06:32:49.596Z,17.88
2019-04-27T06:35:19.167Z,17.97
2019-04-27T06:37:49.239Z,18.07
2019-04-27T06:40:19.081Z,17.96
2019-04-27T06:42:48.751Z,17.90
2019-04-27T06:45:19.670Z,17.97
2019-04-27T06:47:51.326Z,17.94
2019-04-27T06:50:21.505Z,17.88
2019-04-27T06:52:51.045Z,17.77
2019-04-27T06:55:20.639Z,17.59
2019-04-27T06:57:50.253Z,17.27
2019-04-27T07:00:21.433Z,17.05
2019-04-27T07:02:51.012Z,16.86
2019-04-27T07:05:20.596Z,16.96
2019-04-27T07:07:50.064Z,17.06
2019-04-27T07:10:19.608Z,16.88
2019-04-27T07:12:49.254Z,16.99
2019-04-27T07:15:20.519Z,16.86
2019-04-27T07:17:50.312Z,16.77
2019-04-27T07:20:19.927Z,16.66
2019-04-27T07:22:49.737Z,16.74
2019-04-27T07:25:19.424Z,16.72
2019-04-27T07:27:49.443Z,16.85
2019-04-27T07:30:19.230Z,16.80
2019-04-27T07:32:48.961Z,16.84
2019-04-27T07:35:19.690Z,16.89
2019-04-27T07:37:49.339Z,17.08
2019-04-27T07:40:18.923Z,17.11
2019-04-27T07:42:51.734Z,17.08
2019-04-27T07:45:29.509Z,17.31
2019-04-27T07:47:59.220Z,17.32
2019-04-27T07:50:29.084Z,17.28
2019-04-27T07:52:58.827Z,17.32
2019-04-27T07:55:28.826Z,17.25
2019-04-27T07:57:59.709Z,17.31
2019-04-27T08:00:29.412Z,17.36
2019-04-27T08:02:58.928Z,17.33
2019-04-27T08:05:29.155Z,17.32
2019-04-27T08:08:00.246Z,17.40
2019-04-27T08:10:29.917Z,17.41
2019-04-27T08:12:59.816Z,17.22
2019-04-27T08:15:30.757Z,17.24
2019-04-27T08:18:00.291Z,17.36
2019-04-27T08:20:29.805Z,17.57
2019-04-27T08:23:01.201Z,17.61
2019-04-27T08:25:30.849Z,17.78
2019-04-27T08:28:06.193Z,17.99
2019-04-27T08:30:41.902Z,17.98
2019-04-27T08:33:11.492Z,18.02
2019-04-27T08:35:41.030Z,17.96
2019-04-27T08:38:10.547Z,17.97
2019-04-27T08:40:40.096Z,18.16
2019-04-27T08:43:09.755Z,18.29
2019-04-27T08:45:39.410Z,18.40
2019-04-27T08:48:09.418Z,18.42
2019-04-27T08:50:41.778Z,18.41
2019-04-27T08:53:10.223Z,18.42
2019-04-27T08:55:40.829Z,18.25
2019-04-27T08:58:10.409Z,18.37
2019-04-27T09:00:40.122Z,18.35
2019-04-27T09:03:09.713Z,18.26
2019-04-27T09:05:40.244Z,18.59
2019-04-27T09:08:29.120Z,18.73
2019-04-27T09:11:15.500Z,18.90
2019-04-27T09:13:51.686Z,19.11
2019-04-27T09:16:57.889Z,19.29
2019-04-27T09:19:42.289Z,19.18
2019-04-27T09:22:15.982Z,18.81
2019-04-27T09:24:43.056Z,18.55
2019-04-27T09:27:12.687Z,18.96
2019-04-27T09:29:42.290Z,19.09
2019-04-27T09:32:11.832Z,19.07
2019-04-27T09:34:41.536Z,19.06
2019-04-27T09:37:11.073Z,19.21
2019-04-27T09:39:40.682Z,19.26
2019-04-27T09:42:10.260Z,19.28
2019-04-27T09:44:39.955Z,19.32
2019-04-27T09:47:09.479Z,19.13
2019-04-27T09:49:39.004Z,19.08
2019-04-27T09:52:08.550Z,18.95
2019-04-27T09:54:38.147Z,18.91
2019-04-27T09:57:07.723Z,18.92
2019-04-27T09:59:39.695Z,18.84
2019-04-27T10:02:09.919Z,18.55
2019-04-27T10:04:39.431Z,18.49
2019-04-27T10:07:09.004Z,18.37
2019-04-27T10:09:38.541Z,18.27
2019-04-27T10:12:09.694Z,18.13
2019-04-27T10:14:39.234Z,18.06
2019-04-27T10:17:09.768Z,18.14
2019-04-27T10:19:40.245Z,18.15
2019-04-27T10:22:09.827Z,18.10
2019-04-27T10:24:39.389Z,18.01
2019-04-27T10:27:08.921Z,18.01
2019-04-27T10:29:38.809Z,17.92
2019-04-27T10:32:08.379Z,17.54
2019-04-27T10:34:37.917Z,17.04
2019-04-27T10:37:07.911Z,16.62
2019-04-27T10:39:37.563Z,16.37
2019-04-27T10:42:07.176Z,16.77
2019-04-27T10:44:36.749Z,17.02
2019-04-27T10:47:06.802Z,17.25
2019-04-27T10:49:36.508Z,17.32
2019-04-27T10:52:06.130Z,17.20
2019-04-27T10:54:37.914Z,17.05
2019-04-27T10:57:07.540Z,17.09
2019-04-27T10:59:37.221Z,17.00
2019-04-27T11:02:06.894Z,16.89
2019-04-27T11:04:56.605Z,17.26
2019-04-27T11:07:30.482Z,17.14
2019-04-27T11:10:00.060Z,17.13
2019-04-27T11:12:29.866Z,17.03
2019-04-27T11:14:59.394Z,16.88
2019-04-27T11:17:29.008Z,16.80
2019-04-27T11:19:58.598Z,16.71
2019-04-27T11:22:28.126Z,16.81
2019-04-27T11:24:57.718Z,16.92
2019-04-27T11:27:27.338Z,17.00
2019-04-27T11:29:56.935Z,17.04
2019-04-27T11:32:26.530Z,17.16
2019-04-27T11:35:15.681Z,17.29
2019-04-27T11:37:45.711Z,17.56
2019-04-27T11:40:15.647Z,17.48
2019-04-27T11:42:45.187Z,17.29
2019-04-27T11:45:15.148Z,17.37
2019-04-27T11:47:44.785Z,17.41
2019-04-27T11:50:16.456Z,17.53
2019-04-27T11:52:45.967Z,17.24
2019-04-27T11:55:16.131Z,17.17
2019-04-27T11:57:47.011Z,16.69
2019-04-27T12:00:19.048Z,16.73
2019-04-27T12:02:48.640Z,16.67
2019-04-27T12:05:18.447Z,16.53
2019-04-27T12:07:48.023Z,16.42
2019-04-27T12:10:18.521Z,16.48
2019-04-27T12:12:48.038Z,16.33
2019-04-27T12:15:17.728Z,16.31
2019-04-27T12:17:47.268Z,16.40
2019-04-27T12:20:18.346Z,16.39
2019-04-27T12:22:47.879Z,16.50
2019-04-27T12:25:17.592Z,16.53
2019-04-27T12:28:12.411Z,16.75
2019-04-27T12:30:55.502Z,16.80
2019-04-27T12:33:27.767Z,16.81
2019-04-27T12:35:57.366Z,16.97
2019-04-27T12:38:28.364Z,17.00
2019-04-27T12:40:58.956Z,17.05
2019-04-27T12:43:28.490Z,17.02
2019-04-27T12:45:58.001Z,17.01
2019-04-27T12:48:29.005Z,17.00
2019-04-27T12:50:58.551Z,17.16
2019-04-27T12:53:50.062Z,17.23
2019-04-27T12:56:26.088Z,17.13
2019-04-27T12:59:00.043Z,17.25
2019-04-27T13:01:29.656Z,17.15
2019-04-27T13:03:59.400Z,17.17
2019-04-27T13:06:29.008Z,17.14
2019-04-27T13:08:58.561Z,17.03
2019-04-27T13:11:28.097Z,17.12
2019-04-27T13:13:57.813Z,17.26
2019-04-27T13:16:30.424Z,17.17
2019-04-27T13:18:59.783Z,16.71
2019-04-27T13:21:29.328Z,16.92
2019-04-27T13:24:04.141Z,16.96
2019-04-27T13:26:30.093Z,17.00
2019-04-27T13:28:59.708Z,16.96
2019-04-27T13:31:30.220Z,17.01
2019-04-27T13:34:02.618Z,17.11
2019-04-27T13:36:33.093Z,17.07
2019-04-27T13:39:03.727Z,17.15
2019-04-27T13:41:35.921Z,17.22
2019-04-27T13:44:06.604Z,17.22
2019-04-27T13:46:55.962Z,17.22
2019-04-27T13:50:00.789Z,17.30
2019-04-27T13:52:32.100Z,17.28
2019-04-27T13:55:01.722Z,17.23
2019-04-27T13:57:31.319Z,17.37
2019-04-27T14:00:01.314Z,17.26
2019-04-27T14:02:32.650Z,17.18
2019-04-27T14:05:02.556Z,17.14
2019-04-27T14:07:32.453Z,17.09
2019-04-27T14:10:02.967Z,17.12
2019-04-27T14:12:32.697Z,16.55
2019-04-27T14:15:02.196Z,15.30
2019-04-27T14:17:31.812Z,14.76
2019-04-27T14:20:01.378Z,14.12
2019-04-27T14:22:32.051Z,14.07
2019-04-27T14:25:01.659Z,14.10
2019-04-27T14:27:40.320Z,13.99
2019-04-27T14:30:09.105Z,13.93
2019-04-27T14:32:42.100Z,14.18
2019-04-27T14:35:10.739Z,14.23
2019-04-27T14:37:40.368Z,14.09
2019-04-27T14:40:11.001Z,14.09
2019-04-27T14:42:40.645Z,14.18
2019-04-27T14:45:10.552Z,14.32
2019-04-27T14:47:40.105Z,14.45
2019-04-27T14:50:09.900Z,14.43
2019-04-27T14:52:40.948Z,14.59
2019-04-27T14:55:10.734Z,14.79
2019-04-27T14:57:40.277Z,14.98
2019-04-27T15:00:12.128Z,15.19
2019-04-27T15:02:41.785Z,15.25
2019-04-27T15:05:14.322Z,15.38
2019-04-27T15:07:44.562Z,15.36
2019-04-27T15:10:16.216Z,15.36
2019-04-27T15:12:46.904Z,15.18
2019-04-27T15:15:16.839Z,15.32
2019-04-27T15:17:46.559Z,15.31
2019-04-27T15:20:27.256Z,15.26
2019-04-27T15:22:56.803Z,15.19
2019-04-27T15:25:25.723Z,14.96
2019-04-27T15:27:58.560Z,14.84
2019-04-27T15:31:05.623Z,14.93
2019-04-27T15:33:54.701Z,14.93
2019-04-27T15:36:37.857Z,14.95
2019-04-27T15:39:12.837Z,14.94
2019-04-27T15:41:48.553Z,14.97
2019-04-27T15:44:18.780Z,15.07
2019-04-27T15:46:48.570Z,15.11
2019-04-27T15:49:18.206Z,15.17
2019-04-27T15:51:50.596Z,15.05
2019-04-27T15:54:22.234Z,14.87
2019-04-27T15:56:50.645Z,14.84
2019-04-27T15:59:21.921Z,14.95
2019-04-27T16:01:51.558Z,15.00
2019-04-27T16:04:21.158Z,15.00
2019-04-27T16:06:50.832Z,15.10
2019-04-27T16:09:25.403Z,15.28
2019-04-27T16:11:58.410Z,15.38
2019-04-27T16:14:23.895Z,15.39
2019-04-27T16:16:53.676Z,15.49
2019-04-27T16:19:23.398Z,15.58
2019-04-27T16:21:54.310Z,15.54
2019-04-27T16:24:23.974Z,15.46
2019-04-27T16:26:55.994Z,15.45
2019-04-27T16:29:28.072Z,15.40
2019-04-27T16:31:58.263Z,15.17
2019-04-27T16:34:28.660Z,15.50
2019-04-27T16:36:58.930Z,15.88
2019-04-27T16:39:28.737Z,15.66
2019-04-27T16:41:58.793Z,15.47
2019-04-27T16:44:28.580Z,15.39
2019-04-27T16:46:59.209Z,15.43
2019-04-27T16:49:29.064Z,15.41
2019-04-27T16:51:59.080Z,15.47
2019-04-27T16:54:28.686Z,15.47
2019-04-27T16:57:03.293Z,15.31
2019-04-27T16:59:44.156Z,15.17
2019-04-27T17:02:01.668Z,15.10
2019-04-27T17:04:31.519Z,15.00
2019-04-27T17:07:01.198Z,14.96
2019-04-27T17:09:30.716Z,14.84
2019-04-27T17:12:00.356Z,14.65
2019-04-27T17:14:49.099Z,14.61
2019-04-27T17:17:32.114Z,14.45
2019-04-27T17:20:03.219Z,14.29
2019-04-27T17:22:32.778Z,14.33
2019-04-27T17:25:02.332Z,14.40
2019-04-27T17:27:40.789Z,14.50
2019-04-27T17:30:10.682Z,14.46
2019-04-27T17:32:48.847Z,14.43
2019-04-27T17:35:18.426Z,14.44
2019-04-27T17:37:48.877Z,14.79
2019-04-27T17:40:18.498Z,14.70
2019-04-27T17:42:48.247Z,14.72
2019-04-27T17:45:19.363Z,14.77
2019-04-27T17:47:49.157Z,14.82
2019-04-27T17:50:24.990Z,14.78
2019-04-27T17:52:55.010Z,14.87
2019-04-27T17:55:24.333Z,14.87
2019-04-27T17:57:52.705Z,14.86
2019-04-27T18:00:22.373Z,14.81
2019-04-27T18:02:51.945Z,14.84
2019-04-27T18:05:21.517Z,14.85
2019-04-27T18:07:52.503Z,14.77
2019-04-27T18:10:24.311Z,14.48
2019-04-27T18:12:53.462Z,14.86
2019-04-27T18:15:23.090Z,14.80
2019-04-27T18:17:54.631Z,14.82
2019-04-27T18:20:25.486Z,14.71
2019-04-27T18:23:01.310Z,14.73
2019-04-27T18:25:35.697Z,14.74
2019-04-27T18:28:15.147Z,14.63
2019-04-27T18:31:11.458Z,14.65
2019-04-27T18:33:42.553Z,14.58
2019-04-27T18:36:14.242Z,14.50
2019-04-27T18:38:43.552Z,14.50
2019-04-27T18:41:13.127Z,14.57
2019-04-27T18:43:50.585Z,14.60
2019-04-27T18:46:14.834Z,14.58
2019-04-27T18:49:04.287Z,14.54
2019-04-27T18:52:06.492Z,14.48
2019-04-27T18:54:38.363Z,14.35
2019-04-27T18:57:10.770Z,14.23
2019-04-27T18:59:38.828Z,14.16
2019-04-27T19:02:08.650Z,14.00
2019-04-27T19:04:38.248Z,13.84
2019-04-27T19:07:08.750Z,13.74
2019-04-27T19:09:38.334Z,13.59
2019-04-27T19:12:07.903Z,13.55
2019-04-27T19:14:37.532Z,13.56
2019-04-27T19:17:07.183Z,13.57
2019-04-27T19:19:36.761Z,13.60
2019-04-27T19:22:06.409Z,13.50
2019-04-27T19:24:36.034Z,13.50
2019-04-27T19:27:36.680Z,13.52
2019-04-27T19:30:19.777Z,13.50
2019-04-27T19:32:49.334Z,13.56
2019-04-27T19:35:19.974Z,13.52
2019-04-27T19:37:49.630Z,13.50
2019-04-27T19:40:19.249Z,13.39
2019-04-27T19:42:48.856Z,13.40
2019-04-27T19:45:19.288Z,13.36
2019-04-27T19:47:50.511Z,13.26
2019-04-27T19:50:20.038Z,13.18
2019-04-27T19:52:50.297Z,13.33
2019-04-27T19:55:19.895Z,13.41
2019-04-27T19:57:49.846Z,13.43
2019-04-27T20:00:48.402Z,13.41
2019-04-27T20:03:23.798Z,13.37
2019-04-27T20:05:53.345Z,13.43
2019-04-27T20:08:25.171Z,13.54
2019-04-27T20:10:54.740Z,13.58
2019-04-27T20:13:24.373Z,13.66
2019-04-27T20:15:53.973Z,13.64
2019-04-27T20:18:23.528Z,13.62
2019-04-27T20:20:53.118Z,13.57
2019-04-27T20:23:22.746Z,13.73
2019-04-27T20:25:52.268Z,13.93
2019-04-27T20:28:23.119Z,13.91
2019-04-27T20:30:52.728Z,13.93
2019-04-27T20:33:22.281Z,13.93
2019-04-27T20:35:51.856Z,13.92
2019-04-27T20:38:21.541Z,13.87
2019-04-27T20:40:52.820Z,13.82
2019-04-27T20:43:24.700Z,13.82
2019-04-27T20:45:53.612Z,13.84
2019-04-27T20:48:23.152Z,13.79
2019-04-27T20:50:52.676Z,13.73
2019-04-27T20:53:25.473Z,13.59
2019-04-27T20:55:54.987Z,13.52
2019-04-27T20:58:24.520Z,13.53
2019-04-27T21:00:54.097Z,13.33
2019-04-27T21:03:32.779Z,13.44
2019-04-27T21:06:08.315Z,13.44
2019-04-27T21:08:41.224Z,13.41
2019-04-27T21:11:11.867Z,13.39
2019-04-27T21:13:41.454Z,13.30
2019-04-27T21:16:12.539Z,13.38
2019-04-27T21:18:42.195Z,13.31
2019-04-27T21:21:11.944Z,13.35
2019-04-27T21:23:41.651Z,13.32
2019-04-27T21:26:11.187Z,13.26
2019-04-27T21:28:42.999Z,13.39
2019-04-27T21:31:12.761Z,13.40
2019-04-27T21:33:42.454Z,13.38
2019-04-27T21:36:11.973Z,13.29
2019-04-27T21:38:43.020Z,13.34
2019-04-27T21:41:12.596Z,13.40
2019-04-27T21:43:43.848Z,13.43
2019-04-27T21:46:13.463Z,13.52
2019-04-27T21:48:43.049Z,13.42
2019-04-27T21:51:12.650Z,13.47
2019-04-27T21:54:04.090Z,13.47
2019-04-27T21:56:33.690Z,13.47
2019-04-27T21:59:03.318Z,13.43
2019-04-27T22:01:34.207Z,13.49
2019-04-27T22:04:05.511Z,13.51
2019-04-27T22:06:35.061Z,13.50
2019-04-27T22:09:08.432Z,13.49
2019-04-27T22:11:40.902Z,13.52
2019-04-27T22:14:11.689Z,13.83
2019-04-27T22:16:41.754Z,13.78
2019-04-27T22:19:12.044Z,13.58
2019-04-27T22:21:42.078Z,13.39
2019-04-27T22:24:30.962Z,13.32
2019-04-27T22:27:00.486Z,13.20
2019-04-27T22:29:31.951Z,13.17
2019-04-27T22:32:01.733Z,13.07
2019-04-27T22:34:31.379Z,13.09
2019-04-27T22:37:02.611Z,13.10
2019-04-27T22:39:52.539Z,13.11
2019-04-27T22:42:51.860Z,13.07
2019-04-27T22:45:25.089Z,13.15
2019-04-27T22:47:54.780Z,13.10
2019-04-27T22:50:24.419Z,13.11
2019-04-27T22:52:53.954Z,13.10
2019-04-27T22:55:23.499Z,13.04
2019-04-27T22:57:58.273Z,12.99
2019-04-27T23:00:45.761Z,13.05
2019-04-27T23:03:21.236Z,13.15
2019-04-27T23:05:51.284Z,13.18
2019-04-27T23:08:22.554Z,13.05
2019-04-27T23:10:52.401Z,13.02
2019-04-27T23:13:22.040Z,12.91
2019-04-27T23:15:53.790Z,12.92
2019-04-27T23:18:23.354Z,12.94
2019-04-27T23:20:52.904Z,12.99
2019-04-27T23:23:22.404Z,12.93
2019-04-27T23:25:51.981Z,12.94
2019-04-27T23:28:21.622Z,13.01
2019-04-27T23:31:05.768Z,12.96
2019-04-27T23:33:35.870Z,12.90
2019-04-27T23:36:05.409Z,12.85
2019-04-27T23:38:34.935Z,12.87
2019-04-27T23:41:04.575Z,12.85
2019-04-27T23:43:34.128Z,12.97
2019-04-27T23:46:03.707Z,12.99
2019-04-27T23:48:33.357Z,12.92
2019-04-27T23:51:15.641Z,12.96
2019-04-27T23:53:45.162Z,12.90
2019-04-27T23:56:14.834Z,12.91
2019-04-27T23:58:44.420Z,12.88
